Time;durP1;ratioP1;P1;durP2;ratioP2;P2;SDS_P1;SDS_P2;PMS_P1;PMS_P2;Temp;Humidity;BMP_temperature;BMP_pressure;BME280_temperature;BME280_humidity;BME280_pressure;Samples;Min_cycle;Max_cycle;Signal;HPM_P1;HPM_P2
2021/08/09 00:01:11;;;;;;;3.60;2.50;;;14.90;99.90;;;;;;5068974;28;20170;-85
2021/08/09 00:03:36;;;;;;;4.07;3.03;;;14.60;99.90;;;;;;5068674;28;20157;-84
2021/08/09 00:06:02;;;;;;;2.80;2.60;;;14.40;99.90;;;;;;5074076;28;20145;-83
2021/08/09 00:08:28;;;;;;;3.63;3.30;;;14.30;99.90;;;;;;5078096;28;20192;-83
2021/08/09 00:10:54;;;;;;;5.03;3.27;;;14.60;99.90;;;;;;5078062;28;20415;-82
2021/08/09 00:13:19;;;;;;;4.33;3.27;;;14.50;99.90;;;;;;5078367;28;20210;-82
2021/08/09 00:15:45;;;;;;;3.57;3.27;;;14.60;99.90;;;;;;5069636;28;20184;-83
2021/08/09 00:18:11;;;;;;;3.77;3.37;;;14.40;99.90;;;;;;5067582;28;20684;-83
2021/08/09 00:20:36;;;;;;;3.27;2.90;;;14.30;99.90;;;;;;5052733;28;20615;-83
2021/08/09 00:23:02;;;;;;;2.70;2.50;;;14.40;99.90;;;;;;5054418;28;20175;-83
2021/08/09 00:25:27;;;;;;;3.50;3.30;;;14.50;99.90;;;;;;5079318;28;20161;-81
2021/08/09 00:27:53;;;;;;;3.47;3.00;;;14.70;99.90;;;;;;5078509;28;20168;-84
2021/08/09 00:30:18;;;;;;;2.80;2.60;;;14.70;99.90;;;;;;5072354;28;20629;-83
2021/08/09 00:32:44;;;;;;;4.70;2.97;;;14.60;99.90;;;;;;5072360;28;20175;-83
2021/08/09 00:35:10;;;;;;;3.53;2.90;;;14.50;99.90;;;;;;5071158;28;20168;-83
2021/08/09 00:37:35;;;;;;;4.90;3.10;;;14.40;99.90;;;;;;5057681;28;20236;-82
2021/08/09 00:40:01;;;;;;;5.23;3.33;;;14.30;99.90;;;;;;5034233;28;20590;-81
2021/08/09 00:42:26;;;;;;;3.20;2.90;;;14.20;99.90;;;;;;5032828;28;20175;-83
2021/08/09 00:44:52;;;;;;;3.20;3.00;;;14.50;99.90;;;;;;5032234;28;20242;-83
2021/08/09 00:47:18;;;;;;;4.30;2.90;;;14.40;99.90;;;;;;5033609;28;20164;-83
2021/08/09 00:49:43;;;;;;;2.50;2.30;;;14.60;99.90;;;;;;5034068;28;20161;-84
2021/08/09 00:52:09;;;;;;;6.03;3.37;;;14.30;99.90;;;;;;5051890;28;20594;-83
2021/08/09 00:54:36;;;;;;;7.60;4.37;;;14.20;99.90;;;;;;5050313;28;20342;-84
2021/08/09 00:57:01;;;;;;;4.93;3.57;;;14.30;99.90;;;;;;5051682;28;20463;-84
2021/08/09 00:59:28;;;;;;;7.23;2.90;;;14.40;99.90;;;;;;5051669;28;20843;-83
2021/08/09 01:01:54;;;;;;;8.63;3.20;;;14.40;99.90;;;;;;5034506;28;20407;-83
2021/08/09 01:04:19;;;;;;;4.93;3.10;;;14.50;99.90;;;;;;5051927;28;20422;-84
2021/08/09 01:06:45;;;;;;;5.17;3.53;;;14.50;99.90;;;;;;5038164;28;20157;-80
2021/08/09 01:09:21;;;;;;;3.60;3.23;;;14.60;99.90;;;;;;5050673;28;20681;-82
2021/08/09 01:11:58;;;;;;;3.07;2.73;;;14.60;99.90;;;;;;5032665;28;20165;-83
2021/08/09 01:14:42;;;;;;;3.03;2.80;;;14.60;99.90;;;;;;5049121;28;20391;-82
2021/08/09 01:17:10;;;;;;;3.53;3.23;;;14.50;99.90;;;;;;5049305;28;20447;-83
2021/08/09 01:19:50;;;;;;;4.07;2.60;;;14.40;99.90;;;;;;5031048;28;20399;-82
2021/08/09 01:22:32;;;;;;;4.60;3.13;;;14.50;99.90;;;;;;5031042;28;20396;-82
2021/08/09 01:25:22;;;;;;;5.57;3.77;;;14.60;99.90;;;;;;5030938;28;20414;-81
2021/08/09 01:27:50;;;;;;;5.53;2.97;;;14.70;99.90;;;;;;5017236;28;20415;-81
2021/08/09 01:30:18;;;;;;;3.00;2.80;;;14.70;99.90;;;;;;5014124;28;20423;-82
2021/08/09 01:32:45;;;;;;;3.00;2.70;;;14.40;99.90;;;;;;5030961;28;20395;-83
2021/08/09 01:35:12;;;;;;;3.47;3.00;;;14.10;99.90;;;;;;5048145;28;20438;-80
2021/08/09 01:37:43;;;;;;;5.70;3.20;;;14.30;99.90;;;;;;5046849;28;20471;-82
2021/08/09 01:40:10;;;;;;;8.67;3.83;;;14.40;99.90;;;;;;5030720;28;20406;-81
2021/08/09 01:42:38;;;;;;;5.20;3.03;;;14.30;99.90;;;;;;5047611;28;20400;-80
2021/08/09 01:45:05;;;;;;;4.33;3.73;;;14.40;99.90;;;;;;5029875;28;20490;-81
2021/08/09 01:47:34;;;;;;;6.47;3.00;;;14.60;99.90;;;;;;5046561;28;20467;-81
2021/08/09 01:50:02;;;;;;;3.33;3.03;;;14.70;99.90;;;;;;5046866;28;20430;-82
2021/08/09 01:52:28;;;;;;;13.77;3.73;;;14.60;99.90;;;;;;5047238;28;20404;-81
2021/08/09 01:54:53;;;;;;;3.50;2.80;;;14.30;99.90;;;;;;5046870;28;20471;-83
2021/08/09 01:57:19;;;;;;;4.90;3.00;;;14.20;99.90;;;;;;5046861;28;20541;-82
2021/08/09 01:59:46;;;;;;;3.37;3.07;;;14.20;99.90;;;;;;5047012;28;20168;-82
2021/08/09 02:02:21;;;;;;;4.93;3.00;;;14.20;99.90;;;;;;5029979;28;20187;-82
2021/08/09 02:04:46;;;;;;;3.70;3.03;;;14.00;99.90;;;;;;5029985;28;20402;-83
2021/08/09 02:07:12;;;;;;;3.37;3.07;;;14.20;99.90;;;;;;5029446;28;20402;-80
2021/08/09 02:09:37;;;;;;;3.30;2.73;;;14.40;99.90;;;;;;5047978;28;20264;-82
2021/08/09 02:12:06;;;;;;;3.97;3.57;;;14.40;99.90;;;;;;5047651;28;20211;-82
2021/08/09 02:14:35;;;;;;;5.23;3.27;;;14.40;99.90;;;;;;5013313;28;20203;-82
2021/08/09 02:17:10;;;;;;;6.63;3.30;;;14.30;99.90;;;;;;5028502;28;20535;-82
2021/08/09 02:19:44;;;;;;;6.60;3.87;;;14.20;99.90;;;;;;5045474;28;20399;-81
2021/08/09 02:22:18;;;;;;;3.60;3.30;;;14.20;99.90;;;;;;5045804;28;20446;-81
2021/08/09 02:24:49;;;;;;;3.60;3.30;;;14.40;99.90;;;;;;5045926;28;20400;-83
2021/08/09 02:27:19;;;;;;;6.40;3.30;;;14.50;99.90;;;;;;5046921;28;20799;-81
2021/08/09 02:29:49;;;;;;;4.50;3.30;;;14.30;99.90;;;;;;5045526;28;20427;-81
2021/08/09 02:32:17;;;;;;;6.83;3.10;;;14.00;99.90;;;;;;5028596;28;20418;-81
2021/08/09 02:34:44;;;;;;;4.00;3.60;;;13.80;99.90;;;;;;5028132;28;20400;-82
2021/08/09 02:37:10;;;;;;;5.50;3.67;;;13.80;99.90;;;;;;5044632;28;20993;-81
2021/08/09 02:39:38;;;;;;;4.07;3.67;;;13.70;99.90;;;;;;5048519;28;20398;-81
2021/08/09 02:42:06;;;;;;;5.03;3.77;;;13.70;99.90;;;;;;5064221;28;20157;-81
2021/08/09 02:44:33;;;;;;;5.30;3.43;;;13.70;99.90;;;;;;5064630;28;20430;-82
2021/08/09 02:47:00;;;;;;;5.90;3.67;;;13.60;99.90;;;;;;5066518;28;20497;-81
2021/08/09 02:49:30;;;;;;;5.70;4.13;;;13.90;99.90;;;;;;5065327;28;20398;-80
2021/08/09 02:51:55;;;;;;;4.37;3.60;;;13.70;99.90;;;;;;5064700;28;20427;-81
2021/08/09 02:54:21;;;;;;;4.10;3.80;;;13.70;99.90;;;;;;5066536;28;20399;-82
2021/08/09 02:56:47;;;;;;;6.50;3.90;;;13.90;99.90;;;;;;5066585;28;20167;-83
2021/08/09 02:59:14;;;;;;;3.70;3.40;;;13.80;99.90;;;;;;5066221;28;20172;-83
2021/08/09 03:01:42;;;;;;;6.90;4.27;;;13.80;99.90;;;;;;5064763;28;20223;-81
2021/08/09 03:04:18;;;;;;;4.07;3.67;;;13.90;99.90;;;;;;5031447;28;20402;-83
2021/08/09 03:06:43;;;;;;;9.70;4.60;;;14.10;99.90;;;;;;5032234;28;20410;-82
2021/08/09 03:09:10;;;;;;;10.73;4.00;;;14.20;99.90;;;;;;5064956;28;20480;-83
2021/08/09 03:11:36;;;;;;;3.23;2.93;;;14.20;99.90;;;;;;5065386;28;20167;-81
2021/08/09 03:14:02;;;;;;;4.73;3.63;;;14.00;99.90;;;;;;5065115;28;20467;-82
2021/08/09 03:16:27;;;;;;;10.07;4.20;;;13.70;99.90;;;;;;5064673;28;20160;-83
2021/08/09 03:18:53;;;;;;;4.23;3.87;;;13.80;99.90;;;;;;5065991;28;20801;-83
2021/08/09 03:21:18;;;;;;;13.23;4.00;;;13.90;99.90;;;;;;5066384;28;20163;-83
2021/08/09 03:23:44;;;;;;;6.40;4.67;;;13.90;99.90;;;;;;5066924;28;20163;-83
2021/08/09 03:26:10;;;;;;;6.20;4.27;;;13.90;99.90;;;;;;5066227;28;20224;-81
2021/08/09 03:28:36;;;;;;;3.77;3.43;;;13.70;99.90;;;;;;5067097;28;20178;-84
2021/08/09 03:31:03;;;;;;;4.10;3.70;;;13.80;99.90;;;;;;5066510;28;20407;-83
2021/08/09 03:33:30;;;;;;;4.60;3.70;;;13.70;99.90;;;;;;5066852;28;20403;-83
2021/08/09 03:35:55;;;;;;;5.00;4.03;;;13.60;99.90;;;;;;5067507;28;20410;-83
2021/08/09 03:38:21;;;;;;;5.10;4.20;;;13.60;99.90;;;;;;5045415;28;20486;-82
2021/08/09 03:40:46;;;;;;;6.87;4.20;;;13.80;99.90;;;;;;5045973;28;20153;-83
2021/08/09 03:43:13;;;;;;;4.97;4.00;;;13.70;99.90;;;;;;5047606;28;20160;-83
2021/08/09 03:45:38;;;;;;;3.77;3.47;;;13.60;99.90;;;;;;5047999;28;20248;-83
2021/08/09 03:48:06;;;;;;;4.80;3.60;;;13.60;99.90;;;;;;5047874;28;20674;-83
2021/08/09 03:50:32;;;;;;;6.50;3.43;;;13.70;99.90;;;;;;5047286;28;20160;-83
2021/08/09 03:52:57;;;;;;;3.87;3.47;;;13.70;99.90;;;;;;5048326;28;20410;-84
2021/08/09 03:55:23;;;;;;;6.20;3.13;;;13.60;99.90;;;;;;5051251;28;20184;-83
2021/08/09 03:57:48;;;;;;;4.13;3.73;;;13.70;99.90;;;;;;5033037;28;20544;-83
2021/08/09 04:00:14;;;;;;;4.00;3.53;;;13.60;99.90;;;;;;5050596;28;20192;-83
2021/08/09 04:02:40;;;;;;;4.50;4.10;;;13.60;99.90;;;;;;5051048;28;20256;-83
2021/08/09 04:05:09;;;;;;;5.50;5.00;;;13.70;99.90;;;;;;5058119;28;20383;-81
2021/08/09 04:07:36;;;;;;;8.73;4.93;;;13.80;99.90;;;;;;5043011;28;20399;-81
2021/08/09 04:10:02;;;;;;;6.10;4.13;;;13.80;99.90;;;;;;5058310;28;20395;-82
2021/08/09 04:12:27;;;;;;;6.10;4.30;;;13.80;99.90;;;;;;5057358;28;20756;-83
2021/08/09 04:14:53;;;;;;;5.60;3.70;;;13.70;99.90;;;;;;5052489;28;20404;-82
2021/08/09 04:17:18;;;;;;;7.50;5.20;;;13.60;99.90;;;;;;5060299;28;20188;-82
2021/08/09 04:19:44;;;;;;;4.40;3.97;;;13.70;99.90;;;;;;5058431;28;20188;-84
2021/08/09 04:22:10;;;;;;;5.93;4.13;;;13.80;99.90;;;;;;5051616;28;20228;-85
2021/08/09 04:24:35;;;;;;;9.23;4.30;;;13.80;99.90;;;;;;5051966;28;20165;-84
2021/08/09 04:27:01;;;;;;;4.03;3.67;;;13.70;99.90;;;;;;5051601;28;20171;-84
2021/08/09 04:29:26;;;;;;;4.00;3.70;;;13.70;99.90;;;;;;5051539;28;20171;-84
2021/08/09 04:31:52;;;;;;;3.40;3.20;;;13.80;99.90;;;;;;5050709;28;20212;-84
2021/08/09 04:34:17;;;;;;;8.50;4.20;;;13.80;99.90;;;;;;5050961;28;20188;-84
2021/08/09 04:36:43;;;;;;;5.20;3.57;;;14.00;99.90;;;;;;5042091;28;20250;-84
2021/08/09 04:39:08;;;;;;;5.70;4.30;;;13.90;99.90;;;;;;5070016;28;20271;-84
2021/08/09 04:41:34;;;;;;;4.47;4.13;;;13.90;99.90;;;;;;5068516;28;20174;-84
2021/08/09 04:44:00;;;;;;;4.93;4.53;;;13.60;99.90;;;;;;5069986;28;20164;-84
2021/08/09 04:46:25;;;;;;;6.30;3.90;;;13.50;99.90;;;;;;5070406;28;20164;-84
2021/08/09 04:48:51;;;;;;;3.83;3.40;;;13.50;99.90;;;;;;5069906;28;20161;-83
2021/08/09 04:51:16;;;;;;;5.13;4.60;;;13.40;99.90;;;;;;5068634;28;20160;-83
2021/08/09 04:53:43;;;;;;;6.87;4.00;;;13.50;99.90;;;;;;5069899;28;20214;-84
2021/08/09 04:56:09;;;;;;;4.60;4.00;;;13.50;99.90;;;;;;5068731;28;20187;-84
2021/08/09 04:58:34;;;;;;;3.90;3.60;;;13.40;99.90;;;;;;5069884;28;20472;-83
2021/08/09 05:00:59;;;;;;;4.83;3.43;;;13.30;99.90;;;;;;5068422;28;20485;-84
2021/08/09 05:03:25;;;;;;;5.57;4.17;;;13.40;99.90;;;;;;5068695;28;20227;-84
2021/08/09 05:05:51;;;;;;;4.33;3.87;;;13.40;99.90;;;;;;5068809;28;20164;-83
2021/08/09 05:08:16;;;;;;;5.33;3.60;;;13.40;99.90;;;;;;5070034;28;20195;-85
2021/08/09 05:10:42;;;;;;;4.40;4.00;;;13.30;99.90;;;;;;5069925;28;20589;-84
2021/08/09 05:13:08;;;;;;;6.00;3.73;;;13.30;99.90;;;;;;5069490;28;20164;-85
2021/08/09 05:15:35;;;;;;;4.50;3.93;;;13.30;99.90;;;;;;5069222;28;20175;-84
2021/08/09 05:18:02;;;;;;;4.60;3.60;;;13.50;99.90;;;;;;5069416;28;20438;-84
2021/08/09 05:20:28;;;;;;;3.80;3.50;;;13.60;99.90;;;;;;5052519;28;20403;-84
2021/08/09 05:22:53;;;;;;;5.38;3.80;;;13.50;99.90;;;;;;5050873;28;20423;-85
2021/08/09 05:25:22;;;;;;;3.70;3.40;;;13.60;99.90;;;;;;5068298;28;20210;-84
2021/08/09 05:27:48;;;;;;;4.23;3.80;;;13.60;99.90;;;;;;5069793;28;20164;-84
2021/08/09 05:30:13;;;;;;;6.43;3.73;;;13.90;99.90;;;;;;5068081;28;20429;-83
2021/08/09 05:32:39;;;;;;;3.60;2.73;;;14.00;99.90;;;;;;5069776;28;20398;-84
2021/08/09 05:35:07;;;;;;;11.10;4.77;;;13.90;99.90;;;;;;5070212;28;20164;-83
2021/08/09 05:37:34;;;;;;;4.10;3.70;;;14.10;99.90;;;;;;5067966;28;20574;-84
2021/08/09 05:40:00;;;;;;;12.67;4.20;;;14.30;99.90;;;;;;5068361;28;20407;-84
2021/08/09 05:42:26;;;;;;;4.63;3.17;;;14.30;99.90;;;;;;5069405;28;20410;-84
2021/08/09 05:44:52;;;;;;;5.47;4.50;;;14.30;99.90;;;;;;5069602;28;20423;-84
2021/08/09 05:47:17;;;;;;;5.17;3.90;;;14.40;99.90;;;;;;5062723;28;20184;-84
2021/08/09 05:49:43;;;;;;;8.17;3.40;;;14.30;99.90;;;;;;5065100;28;20474;-85
2021/08/09 05:52:18;;;;;;;4.20;3.80;;;14.40;99.90;;;;;;5071703;28;20165;-84
2021/08/09 05:54:44;;;;;;;3.33;3.03;;;14.40;99.90;;;;;;5071189;28;20215;-84
2021/08/09 05:57:12;;;;;;;6.33;3.40;;;14.50;99.90;;;;;;5073841;28;20501;-83
2021/08/09 05:59:37;;;;;;;3.17;2.90;;;14.70;99.90;;;;;;5068192;28;20477;-82
2021/08/09 06:02:03;;;;;;;4.87;3.57;;;14.70;99.90;;;;;;5060919;28;20170;-83
2021/08/09 06:04:28;;;;;;;3.47;3.17;;;14.80;99.90;;;;;;5067893;28;20186;-82
2021/08/09 06:06:54;;;;;;;4.67;2.97;;;14.90;99.90;;;;;;5068368;28;20329;-83
2021/08/09 06:09:19;;;;;;;3.50;3.20;;;15.00;99.90;;;;;;5069160;28;20259;-84
2021/08/09 06:11:45;;;;;;;5.03;3.40;;;15.10;99.90;;;;;;5067903;28;20164;-84
2021/08/09 06:14:10;;;;;;;8.00;3.83;;;15.30;99.90;;;;;;5067834;28;20176;-84
2021/08/09 06:16:36;;;;;;;7.90;3.53;;;15.50;99.90;;;;;;5068845;28;20251;-84
2021/08/09 06:19:01;;;;;;;3.03;2.83;;;15.60;99.90;;;;;;5067537;28;20217;-84
2021/08/09 06:21:27;;;;;;;3.33;2.80;;;15.70;99.90;;;;;;5068028;28;20156;-83
2021/08/09 06:23:52;;;;;;;3.43;3.13;;;15.40;99.90;;;;;;5068953;28;20174;-84
2021/08/09 06:26:18;;;;;;;5.60;2.60;;;15.30;99.90;;;;;;5062358;28;20173;-84
2021/08/09 06:28:43;;;;;;;9.93;3.90;;;15.40;99.90;;;;;;5060206;28;20172;-84
2021/08/09 06:31:09;;;;;;;2.93;2.70;;;15.60;99.90;;;;;;5057858;28;20168;-83
2021/08/09 06:33:34;;;;;;;8.10;3.33;;;15.70;99.90;;;;;;5062266;28;20236;-84
2021/08/09 06:36:00;;;;;;;3.33;2.93;;;15.70;99.90;;;;;;5070046;28;20179;-84
2021/08/09 06:38:25;;;;;;;3.80;2.70;;;15.90;99.90;;;;;;5054893;28;20248;-84
2021/08/09 06:40:51;;;;;;;3.60;3.13;;;15.80;99.90;;;;;;5053126;28;20243;-82
2021/08/09 06:43:16;;;;;;;10.07;4.57;;;16.00;99.90;;;;;;5050383;28;20204;-84
2021/08/09 06:45:43;;;;;;;4.27;2.70;;;16.10;99.90;;;;;;5049100;28;20248;-84
2021/08/09 06:48:11;;;;;;;2.90;2.70;;;16.20;99.90;;;;;;5045466;28;20203;-84
2021/08/09 06:50:38;;;;;;;3.83;2.60;;;16.30;99.90;;;;;;5040519;28;20435;-84
2021/08/09 06:53:04;;;;;;;3.50;3.00;;;16.30;99.90;;;;;;5048958;28;20438;-84
2021/08/09 06:55:30;;;;;;;2.87;2.60;;;16.30;99.90;;;;;;5012486;28;20434;-84
2021/08/09 06:57:55;;;;;;;3.73;2.83;;;16.50;99.90;;;;;;5047759;28;20479;-82
2021/08/09 07:00:21;;;;;;;3.40;2.60;;;16.60;99.90;;;;;;5051790;28;20229;-82
2021/08/09 07:02:47;;;;;;;5.07;2.90;;;16.60;99.90;;;;;;5026749;28;20514;-83
2021/08/09 07:05:12;;;;;;;3.77;2.60;;;16.80;99.90;;;;;;5015939;28;20169;-82
2021/08/09 07:07:38;;;;;;;4.30;2.60;;;16.90;99.90;;;;;;5053452;28;20193;-82
2021/08/09 07:10:05;;;;;;;4.47;2.83;;;17.00;99.90;;;;;;5051797;28;20272;-84
2021/08/09 07:12:31;;;;;;;2.63;2.43;;;17.10;99.90;;;;;;5029691;28;20426;-84
2021/08/09 07:14:56;;;;;;;3.20;2.90;;;17.00;99.90;;;;;;5047411;28;20399;-84
2021/08/09 07:17:21;;;;;;;7.87;2.93;;;17.10;99.90;;;;;;5030254;28;20226;-84
2021/08/09 07:19:47;;;;;;;5.17;3.43;;;17.20;99.90;;;;;;5047682;28;20242;-84
2021/08/09 07:22:13;;;;;;;4.30;2.33;;;17.10;99.90;;;;;;5013916;28;20232;-84
2021/08/09 07:24:38;;;;;;;6.73;6.13;;;17.40;99.90;;;;;;5043050;28;20183;-84
2021/08/09 07:27:04;;;;;;;2.50;2.00;;;17.50;99.90;;;;;;5046314;28;20176;-84
2021/08/09 07:29:31;;;;;;;3.17;2.97;;;17.20;99.90;;;;;;5037962;28;20227;-85
2021/08/09 07:31:57;;;;;;;4.03;3.63;;;17.40;99.90;;;;;;5023914;28;20200;-84
2021/08/09 07:34:22;;;;;;;2.97;2.77;;;17.70;99.90;;;;;;5025175;28;20452;-82
2021/08/09 07:36:48;;;;;;;4.33;2.57;;;18.00;99.90;;;;;;5038302;28;20219;-84
2021/08/09 07:39:17;;;;;;;5.27;4.87;;;18.00;99.90;;;;;;5084662;28;20184;-84
2021/08/09 07:41:43;;;;;;;3.50;2.43;;;18.20;99.90;;;;;;5069741;28;20491;-84
2021/08/09 07:44:08;;;;;;;2.57;2.37;;;18.20;99.90;;;;;;5062683;28;20736;-84
2021/08/09 07:46:34;;;;;;;6.50;2.90;;;18.10;99.90;;;;;;5079498;28;20266;-83
2021/08/09 07:49:00;;;;;;;8.73;2.63;;;18.10;99.90;;;;;;5078298;28;20180;-84
2021/08/09 07:51:25;;;;;;;1.90;1.77;;;18.60;99.90;;;;;;5068398;28;20257;-85
2021/08/09 07:53:51;;;;;;;2.90;2.70;;;18.80;99.90;;;;;;5049134;28;20160;-84
2021/08/09 07:56:17;;;;;;;3.33;2.60;;;18.70;99.90;;;;;;5048032;28;20187;-84
2021/08/09 07:58:42;;;;;;;5.60;3.03;;;18.60;99.90;;;;;;5049247;28;20211;-84
2021/08/09 08:01:08;;;;;;;4.43;2.70;;;18.60;99.90;;;;;;5049337;28;20167;-84
2021/08/09 08:03:33;;;;;;;3.63;2.80;;;18.50;99.90;;;;;;5067270;28;20196;-84
2021/08/09 08:05:59;;;;;;;2.67;2.47;;;18.30;99.90;;;;;;5067232;28;20266;-84
2021/08/09 08:08:24;;;;;;;2.90;1.97;;;18.50;99.90;;;;;;5067362;28;20535;-84
2021/08/09 08:10:50;;;;;;;6.93;2.13;;;18.40;99.90;;;;;;5057220;28;20210;-84
2021/08/09 08:13:15;;;;;;;2.40;2.20;;;18.50;99.90;;;;;;5060765;28;20168;-84
2021/08/09 08:15:41;;;;;;;4.53;2.43;;;18.50;99.90;;;;;;5064001;28;20180;-84
2021/08/09 08:18:06;;;;;;;2.50;2.30;;;18.60;99.90;;;;;;5065589;28;20274;-83
2021/08/09 08:20:32;;;;;;;3.47;2.73;;;18.70;99.90;;;;;;5066567;28;20171;-84
2021/08/09 08:23:01;;;;;;;3.00;2.70;;;18.80;99.90;;;;;;5057304;28;20172;-84
2021/08/09 08:25:27;;;;;;;3.17;2.87;;;18.80;99.90;;;;;;5053009;28;20179;-80
2021/08/09 08:27:53;;;;;;;3.10;2.30;;;18.80;99.90;;;;;;5067388;28;20446;-81
2021/08/09 08:30:19;;;;;;;3.30;1.97;;;19.10;99.90;;;;;;5066503;28;20172;-83
2021/08/09 08:32:45;;;;;;;4.60;1.73;;;19.20;99.90;;;;;;5046833;28;20231;-81
2021/08/09 08:35:11;;;;;;;3.10;1.70;;;19.20;99.90;;;;;;5065998;28;20414;-82
2021/08/09 08:37:36;;;;;;;6.00;2.37;;;19.30;99.90;;;;;;5051312;28;20551;-83
2021/08/09 08:40:02;;;;;;;2.35;2.10;;;19.40;99.90;;;;;;5028324;28;20891;-82
2021/08/09 08:42:28;;;;;;;5.20;2.20;;;19.60;99.90;;;;;;5049564;28;20466;-83
2021/08/09 08:44:54;;;;;;;2.63;2.43;;;19.60;99.90;;;;;;5031503;28;20488;-84
2021/08/09 08:47:20;;;;;;;3.30;2.50;;;19.70;99.90;;;;;;5037851;28;20237;-83
2021/08/09 08:49:47;;;;;;;1.90;1.80;;;19.70;99.90;;;;;;5031285;28;20271;-83
2021/08/09 08:52:14;;;;;;;4.20;1.90;;;19.80;99.90;;;;;;5047598;28;20411;-83
2021/08/09 08:54:40;;;;;;;4.83;2.10;;;19.90;99.90;;;;;;5031514;28;20590;-83
2021/08/09 08:57:17;;;;;;;3.40;2.37;;;19.90;99.90;;;;;;4997894;28;20436;-84
2021/08/09 08:59:43;;;;;;;3.83;2.07;;;19.80;99.90;;;;;;5041350;28;20173;-85
2021/08/09 09:02:09;;;;;;;2.13;1.93;;;20.00;99.90;;;;;;5030312;28;20403;-85
2021/08/09 09:04:36;;;;;;;2.37;2.00;;;19.80;99.90;;;;;;5046919;28;20484;-85
2021/08/09 09:07:04;;;;;;;2.40;1.90;;;20.00;99.90;;;;;;5036013;28;20419;-85
2021/08/09 09:09:33;;;;;;;2.10;1.90;;;20.20;99.90;;;;;;5048643;28;20469;-84
2021/08/09 09:12:13;;;;;;;2.93;2.53;;;20.30;99.90;;;;;;5021089;28;20481;-84
2021/08/09 09:14:39;;;;;;;1.90;1.80;;;20.30;99.90;;;;;;5018822;28;20469;-82
2021/08/09 09:17:04;;;;;;;2.23;2.03;;;20.40;99.90;;;;;;5028380;28;20562;-84
2021/08/09 09:19:33;;;;;;;5.00;1.60;;;20.60;99.90;;;;;;5049405;28;20192;-84
2021/08/09 09:21:59;;;;;;;1.37;1.27;;;20.60;99.90;;;;;;5047808;28;20168;-84
2021/08/09 09:24:26;;;;;;;1.60;1.50;;;20.30;99.90;;;;;;5048678;28;20419;-84
2021/08/09 09:26:57;;;;;;;3.80;1.80;;;20.10;99.90;;;;;;5046216;28;20181;-85
2021/08/09 09:29:23;;;;;;;2.90;2.27;;;20.50;99.90;;;;;;5025588;28;20418;-87
2021/08/09 09:31:51;;;;;;;6.23;1.80;;;20.90;99.90;;;;;;5024688;28;20497;-87
2021/08/09 09:34:19;;;;;;;2.03;1.70;;;20.90;99.90;;;;;;5010300;28;20403;-85
2021/08/09 09:36:56;;;;;;;1.40;1.30;;;21.00;99.90;;;;;;5019937;28;20455;-84
2021/08/09 09:39:35;;;;;;;2.00;1.80;;;21.30;99.90;;;;;;5028135;28;20473;-87
2021/08/09 09:42:04;;;;;;;2.40;2.20;;;21.40;99.90;;;;;;5058879;28;20426;-85
2021/08/09 09:44:31;;;;;;;2.33;1.60;;;21.40;99.90;;;;;;5050506;28;20406;-84
2021/08/09 09:47:21;;;;;;;2.00;1.90;;;21.30;99.90;;;;;;5064220;28;20504;-81
2021/08/09 09:49:52;;;;;;;2.10;1.90;;;21.20;99.90;;;;;;5060064;28;20410;-81
2021/08/09 09:52:33;;;;;;;4.70;2.30;;;21.30;99.90;;;;;;5066250;28;20422;-84
2021/08/09 09:55:00;;;;;;;3.90;2.07;;;21.30;99.90;;;;;;5064537;28;20410;-82
2021/08/09 09:57:27;;;;;;;2.07;1.70;;;21.30;99.90;;;;;;5037872;28;20439;-83
2021/08/09 09:59:56;;;;;;;3.67;2.40;;;21.70;99.90;;;;;;5049796;28;20476;-84
2021/08/09 10:02:22;;;;;;;2.50;2.00;;;21.90;99.90;;;;;;5066454;28;20407;-84
2021/08/09 10:04:47;;;;;;;4.33;3.67;;;21.60;99.90;;;;;;5067123;28;20490;-83
2021/08/09 10:07:17;;;;;;;3.23;2.30;;;21.90;99.90;;;;;;5067108;28;20186;-84
2021/08/09 10:09:47;;;;;;;2.40;2.00;;;22.40;99.90;;;;;;5066341;28;20203;-84
2021/08/09 10:12:13;;;;;;;2.07;1.87;;;22.40;99.90;;;;;;5068244;28;20950;-83
2021/08/09 10:14:39;;;;;;;2.50;1.97;;;22.20;99.90;;;;;;5064152;28;20422;-84
2021/08/09 10:17:05;;;;;;;2.30;1.50;;;22.50;99.90;;;;;;5062839;28;20518;-84
2021/08/09 10:19:30;;;;;;;5.60;2.17;;;22.60;99.90;;;;;;5048635;28;20411;-84
2021/08/09 10:21:56;;;;;;;2.17;1.93;;;22.40;99.90;;;;;;5054681;28;20175;-83
2021/08/09 10:24:42;;;;;;;3.03;1.90;;;22.70;99.90;;;;;;5068576;28;20179;-84
2021/08/09 10:27:08;;;;;;;1.80;1.70;;;22.60;99.90;;;;;;5068288;28;20200;-84
2021/08/09 10:30:10;;;;;;;2.20;2.00;;;22.90;99.90;;;;;;5067587;28;20444;-83
2021/08/09 10:32:45;;;;;;;2.40;2.20;;;22.90;99.90;;;;;;5067329;28;20422;-84
2021/08/09 10:35:33;;;;;;;1.90;1.70;;;23.00;99.90;;;;;;5058523;28;20422;-84
2021/08/09 10:38:17;;;;;;;4.07;2.37;;;22.70;99.90;;;;;;5046312;28;20539;-84
2021/08/09 10:40:44;;;;;;;2.50;1.93;;;23.30;99.90;;;;;;5029090;28;20399;-84
2021/08/09 10:43:10;;;;;;;2.00;1.73;;;22.90;99.90;;;;;;5026059;28;20401;-85
2021/08/09 10:45:41;;;;;;;3.00;1.80;;;23.00;99.90;;;;;;5048458;28;20573;-84
2021/08/09 10:48:09;;;;;;;1.90;1.80;;;22.90;99.90;;;;;;5032416;28;20420;-85
2021/08/09 10:50:51;;;;;;;2.70;2.17;;;23.10;99.90;;;;;;5048474;28;20416;-85
2021/08/09 10:53:39;;;;;;;1.83;1.73;;;22.50;99.90;;;;;;5048994;28;20475;-85
2021/08/09 10:56:05;;;;;;;1.90;1.80;;;22.70;99.90;;;;;;5029825;28;20392;-84
2021/08/09 10:58:53;;;;;;;2.23;1.80;;;22.50;99.90;;;;;;5042554;28;20446;-85
2021/08/09 11:01:22;;;;;;;2.63;2.00;;;22.60;99.90;;;;;;5041820;28;20207;-84
2021/08/09 11:04:12;;;;;;;2.00;1.80;;;22.80;99.90;;;;;;5022431;28;20499;-82
2021/08/09 11:06:58;;;;;;;3.57;1.97;;;22.80;99.90;;;;;;5034580;28;20459;-84
2021/08/09 11:09:41;;;;;;;9.83;2.77;;;23.10;99.90;;;;;;5045954;28;20474;-83
2021/08/09 11:12:14;;;;;;;2.07;1.80;;;23.00;99.90;;;;;;5044636;28;20476;-84
2021/08/09 11:15:13;;;;;;;1.67;1.57;;;23.30;99.90;;;;;;5026605;28;20496;-83
2021/08/09 11:17:48;;;;;;;1.97;1.80;;;22.90;99.90;;;;;;5024751;28;20451;-84
2021/08/09 11:20:27;;;;;;;2.83;2.17;;;23.60;99.90;;;;;;5026843;28;20403;-82
2021/08/09 11:23:09;;;;;;;3.87;2.27;;;23.90;99.90;;;;;;5045547;28;20430;-84
2021/08/09 11:25:41;;;;;;;1.60;1.50;;;24.00;99.90;;;;;;5048578;28;20395;-84
2021/08/09 11:28:13;;;;;;;2.23;1.67;;;23.50;99.90;;;;;;5032909;28;20387;-84
2021/08/09 11:30:42;;;;;;;3.10;2.00;;;23.80;99.90;;;;;;5047686;28;20395;-84
2021/08/09 11:33:36;;;;;;;2.13;1.80;;;23.80;99.90;;;;;;5029723;28;20399;-84
2021/08/09 11:36:06;;;;;;;2.00;1.73;;;23.70;99.90;;;;;;5028724;28;20533;-84
2021/08/09 11:38:54;;;;;;;4.23;1.87;;;24.30;99.90;;;;;;5045480;28;20445;-82
2021/08/09 11:41:24;;;;;;;1.50;1.37;;;25.20;99.90;;;;;;5004218;28;20415;-84
2021/08/09 11:43:56;;;;;;;1.60;1.50;;;25.80;99.90;;;;;;4970604;28;20416;-84
2021/08/09 11:46:21;;;;;;;1.70;1.60;;;25.50;99.90;;;;;;5003590;28;20401;-83
2021/08/09 11:48:49;;;;;;;1.70;1.60;;;25.30;99.90;;;;;;5002704;28;20822;-84
2021/08/09 11:51:25;;;;;;;5.37;1.90;;;24.80;99.90;;;;;;5002695;28;20573;-84
2021/08/09 11:53:53;;;;;;;2.33;2.03;;;24.80;99.90;;;;;;5002243;28;20499;-83
2021/08/09 11:56:31;;;;;;;1.80;1.60;;;24.50;99.90;;;;;;5003526;28;20417;-84
2021/08/09 11:58:58;;;;;;;2.30;1.40;;;25.60;99.90;;;;;;5003891;28;20470;-84
2021/08/09 12:01:36;;;;;;;1.90;1.80;;;25.50;99.00;;;;;;5004051;28;20815;-84
2021/08/09 12:04:18;;;;;;;3.10;2.00;;;26.20;98.20;;;;;;4985184;28;20420;-84
2021/08/09 12:06:46;;;;;;;1.67;1.53;;;26.70;97.90;;;;;;5002531;28;20405;-84
2021/08/09 12:09:13;;;;;;;1.63;1.53;;;26.20;96.00;;;;;;4987554;28;20490;-84
2021/08/09 12:11:40;;;;;;;1.87;1.40;;;25.80;96.20;;;;;;5012414;28;20407;-82
2021/08/09 12:14:11;;;;;;;1.60;1.50;;;25.80;96.60;;;;;;5027779;28;20406;-84
2021/08/09 12:16:46;;;;;;;1.80;1.63;;;25.30;95.80;;;;;;5032827;28;20422;-84
2021/08/09 12:19:14;;;;;;;2.70;2.20;;;24.20;96.30;;;;;;5049145;28;20488;-85
2021/08/09 12:21:40;;;;;;;2.70;2.00;;;25.70;97.00;;;;;;5031646;28;20398;-84
2021/08/09 12:24:16;;;;;;;1.97;1.50;;;26.10;94.00;;;;;;5030381;28;20445;-83
2021/08/09 12:26:42;;;;;;;1.50;1.20;;;25.50;95.50;;;;;;5029992;28;20183;-83
2021/08/09 12:29:19;;;;;;;2.20;1.73;;;25.90;94.00;;;;;;5049076;28;20398;-85
2021/08/09 12:31:45;;;;;;;1.70;1.60;;;25.30;94.40;;;;;;5031181;28;20160;-84
2021/08/09 12:34:13;;;;;;;2.50;1.43;;;25.80;93.90;;;;;;5049599;28;20557;-83
2021/08/09 12:36:39;;;;;;;2.23;1.30;;;25.10;94.30;;;;;;5040839;28;20555;-83
2021/08/09 12:39:08;;;;;;;1.73;1.63;;;25.00;95.60;;;;;;5069706;28;20453;-84
2021/08/09 12:41:35;;;;;;;2.47;1.80;;;25.70;95.10;;;;;;5068227;28;20523;-83
2021/08/09 12:44:04;;;;;;;2.80;1.80;;;26.40;94.80;;;;;;5070039;28;20393;-83
2021/08/09 12:46:31;;;;;;;1.60;1.30;;;25.50;92.70;;;;;;5069455;28;20394;-83
2021/08/09 12:48:56;;;;;;;1.50;1.40;;;25.30;94.50;;;;;;5069333;28;20389;-83
2021/08/09 12:51:22;;;;;;;1.50;1.40;;;26.70;92.10;;;;;;5067591;28;20401;-83